Time;durP1;ratioP1;P1;durP2;ratioP2;P2;SDS_P1;SDS_P2;PMS_P1;PMS_P2;Temp;Humidity;BMP_temperature;BMP_pressure;BME280_temperature;BME280_humidity;BME280_pressure;Samples;Min_cycle;Max_cycle;Signal;HPM_P1;HPM_P2
2021/06/05 00:00:32;;;;;;;;;;;22.60;49.00;;;;;;4992973;28;75179;-69
2021/06/05 00:02:59;;;;;;;;;;;22.50;50.00;;;;;;4993148;28;75239;-66
2021/06/05 00:05:25;;;;;;;;;;;22.40;49.40;;;;;;4992773;28;75273;-68
2021/06/05 00:07:52;;;;;;;;;;;22.30;49.70;;;;;;4990947;28;76610;-66
2021/06/05 00:10:22;;;;;;;;;;;22.30;50.20;;;;;;4991405;28;77159;-68
2021/06/05 00:12:47;;;;;;;;;;;22.30;49.30;;;;;;4992889;28;74416;-68
2021/06/05 00:15:16;;;;;;;;;;;22.20;49.60;;;;;;4991047;28;78329;-69
2021/06/05 00:17:42;;;;;;;;;;;22.20;49.70;;;;;;4990998;28;78465;-68
2021/06/05 00:20:09;;;;;;;;;;;22.20;50.10;;;;;;4992310;28;75162;-69
2021/06/05 00:22:35;;;;;;;;;;;22.10;49.70;;;;;;4991017;28;75620;-69
2021/06/05 00:25:00;;;;;;;;;;;22.10;49.90;;;;;;4991121;28;74589;-68
2021/06/05 00:27:26;;;;;;;;;;;22.10;50.10;;;;;;4992806;28;74725;-68
2021/06/05 00:29:52;;;;;;;;;;;22.00;50.70;;;;;;4991411;28;77159;-67
2021/06/05 00:32:17;;;;;;;;;;;22.00;50.10;;;;;;4994433;28;74527;-67
2021/06/05 00:34:43;;;;;;;;;;;22.00;50.30;;;;;;4995657;28;75206;-67
2021/06/05 00:37:08;;;;;;;;;;;21.90;50.60;;;;;;4994246;28;76526;-68
2021/06/05 00:39:34;;;;;;;;;;;21.90;50.60;;;;;;4995894;28;75159;-67
2021/06/05 00:41:59;;;;;;;;;;;21.90;50.60;;;;;;4994029;28;78443;-67
2021/06/05 00:44:25;;;;;;;;;;;21.90;50.60;;;;;;4994504;28;76057;-68
2021/06/05 00:46:51;;;;;;;;;;;21.90;50.70;;;;;;4995642;28;75158;-68
2021/06/05 00:49:17;;;;;;;;;;;21.80;50.60;;;;;;4994402;28;75423;-69
2021/06/05 00:51:44;;;;;;;;;;;21.80;51.40;;;;;;4994272;28;75734;-69
2021/06/05 00:54:11;;;;;;;;;;;21.70;51.10;;;;;;4995679;28;74457;-69
2021/06/05 00:56:36;;;;;;;;;;;21.70;51.20;;;;;;4995525;28;74490;-69
2021/06/05 00:59:03;;;;;;;;;;;21.60;50.90;;;;;;4993972;28;77193;-69
2021/06/05 01:01:30;;;;;;;;;;;21.60;51.20;;;;;;4996181;28;74380;-69
2021/06/05 01:03:56;;;;;;;;;;;21.50;51.10;;;;;;4995964;28;75628;-66
2021/06/05 01:06:24;;;;;;;;;;;21.50;51.50;;;;;;4995074;28;76460;-68
2021/06/05 01:09:05;;;;;;;;;;;21.40;51.10;;;;;;4995101;28;74654;-67
2021/06/05 01:11:39;;;;;;;;;;;21.40;51.30;;;;;;4995330;28;75020;-67
2021/06/05 01:14:10;;;;;;;;;;;21.40;51.90;;;;;;4995334;28;75491;-70
2021/06/05 01:16:37;;;;;;;;;;;21.30;51.70;;;;;;4994922;28;75346;-67
2021/06/05 01:19:19;;;;;;;;;;;21.20;52.70;;;;;;4993442;28;75441;-68
2021/06/05 01:22:10;;;;;;;;;;;21.20;52.10;;;;;;4995421;28;75296;-67
2021/06/05 01:24:51;;;;;;;;;;;21.20;52.00;;;;;;4993685;28;77587;-67
2021/06/05 01:27:43;;;;;;;;;;;21.20;51.90;;;;;;4995193;28;74443;-67
2021/06/05 01:30:13;;;;;;;;;;;21.10;51.90;;;;;;4994449;28;75516;-67
2021/06/05 01:32:39;;;;;;;;;;;21.00;52.50;;;;;;4994847;28;76940;-67
2021/06/05 01:35:05;;;;;;;;;;;21.00;52.80;;;;;;4994824;28;75612;-68
2021/06/05 01:37:33;;;;;;;;;;;21.00;52.30;;;;;;4994622;28;76882;-68
2021/06/05 01:39:59;;;;;;;;;;;21.00;52.30;;;;;;4993067;28;74651;-68
2021/06/05 01:42:29;;;;;;;;;;;21.00;52.30;;;;;;4994646;28;75193;-68
2021/06/05 01:44:57;;;;;;;;;;;20.90;53.10;;;;;;4993171;28;76614;-68
2021/06/05 01:47:22;;;;;;;;;;;20.90;52.60;;;;;;4994661;28;75269;-68
2021/06/05 01:49:48;;;;;;;;;;;20.90;52.40;;;;;;4993624;28;77016;-69
2021/06/05 01:52:21;;;;;;;;;;;20.80;53.10;;;;;;4993086;28;75549;-69
2021/06/05 01:54:56;;;;;;;;;;;20.80;53.20;;;;;;4994658;28;75552;-70
2021/06/05 01:57:24;;;;;;;;;;;20.80;52.90;;;;;;4992585;28;75835;-69
2021/06/05 01:59:50;;;;;;;;;;;20.90;53.00;;;;;;4994853;28;75772;-68
2021/06/05 02:02:16;;;;;;;;;;;20.80;52.60;;;;;;4994422;28;75250;-69
2021/06/05 02:04:42;;;;;;;;;;;20.90;53.20;;;;;;4994648;28;74525;-66
2021/06/05 02:07:08;;;;;;;;;;;20.80;53.20;;;;;;4992730;28;78553;-68
2021/06/05 02:09:34;;;;;;;;;;;20.80;53.10;;;;;;4994341;28;74996;-67
2021/06/05 02:12:09;;;;;;;;;;;20.80;52.90;;;;;;4993503;28;76824;-67
2021/06/05 02:14:38;;;;;;;;;;;20.70;52.90;;;;;;4994482;28;74577;-67
2021/06/05 02:17:06;;;;;;;;;;;20.70;53.20;;;;;;4994277;28;75497;-68
2021/06/05 02:19:36;;;;;;;;;;;20.70;52.90;;;;;;4992166;28;77998;-67
2021/06/05 02:22:05;;;;;;;;;;;20.80;53.00;;;;;;4992929;28;75781;-68
2021/06/05 02:24:33;;;;;;;;;;;20.80;52.90;;;;;;4994327;28;75080;-68
2021/06/05 02:26:59;;;;;;;;;;;20.80;53.00;;;;;;4994055;28;75013;-68
2021/06/05 02:29:27;;;;;;;;;;;20.80;52.80;;;;;;4994086;28;75221;-68
2021/06/05 02:31:52;;;;;;;;;;;20.70;53.90;;;;;;4993718;28;75163;-68
2021/06/05 02:34:20;;;;;;;;;;;20.70;53.20;;;;;;4993924;28;75127;-69
2021/06/05 02:36:47;;;;;;;;;;;20.70;53.20;;;;;;4994023;28;75209;-70
2021/06/05 02:39:14;;;;;;;;;;;20.70;53.20;;;;;;4994031;28;75067;-69
2021/06/05 02:41:42;;;;;;;;;;;20.80;53.20;;;;;;4993912;28;75781;-68
2021/06/05 02:44:07;;;;;;;;;;;20.70;53.10;;;;;;4993452;28;75704;-66
2021/06/05 02:46:34;;;;;;;;;;;20.70;53.30;;;;;;4993859;28;75047;-68
2021/06/05 02:49:02;;;;;;;;;;;20.80;53.00;;;;;;4991755;28;78478;-68
2021/06/05 02:51:33;;;;;;;;;;;20.80;52.80;;;;;;4992365;28;77104;-68
2021/06/05 02:53:58;;;;;;;;;;;20.80;53.00;;;;;;4992782;28;75243;-68
2021/06/05 02:56:25;;;;;;;;;;;20.70;53.20;;;;;;4992567;28;74651;-68
2021/06/05 02:58:50;;;;;;;;;;;20.70;53.20;;;;;;4993788;28;75275;-67
2021/06/05 03:01:16;;;;;;;;;;;20.60;53.50;;;;;;4993331;28;74935;-67
2021/06/05 03:03:42;;;;;;;;;;;20.60;53.60;;;;;;4994169;28;74411;-68
2021/06/05 03:06:08;;;;;;;;;;;20.60;53.50;;;;;;4993174;28;75689;-67
2021/06/05 03:08:35;;;;;;;;;;;20.60;53.90;;;;;;4993914;28;74436;-68
2021/06/05 03:11:02;;;;;;;;;;;20.60;53.50;;;;;;4993440;28;75137;-68
2021/06/05 03:13:28;;;;;;;;;;;20.60;53.50;;;;;;4991915;28;75457;-68
2021/06/05 03:15:53;;;;;;;;;;;20.60;53.40;;;;;;4991944;28;75506;-69
2021/06/05 03:18:20;;;;;;;;;;;20.50;53.60;;;;;;4993282;28;74973;-69
2021/06/05 03:20:47;;;;;;;;;;;20.40;54.40;;;;;;4993292;28;75467;-68
2021/06/05 03:23:14;;;;;;;;;;;20.40;54.20;;;;;;4991820;28;74578;-67
2021/06/05 03:25:39;;;;;;;;;;;20.40;54.50;;;;;;4991583;28;75688;-68
2021/06/05 03:28:05;;;;;;;;;;;20.30;54.30;;;;;;4991742;28;77753;-67
2021/06/05 03:30:31;;;;;;;;;;;20.40;54.40;;;;;;4991548;28;78177;-67
2021/06/05 03:32:57;;;;;;;;;;;20.30;54.40;;;;;;4991925;28;77491;-67
2021/06/05 03:35:23;;;;;;;;;;;20.30;54.70;;;;;;4992817;28;75197;-67
2021/06/05 03:37:48;;;;;;;;;;;20.30;54.30;;;;;;4993346;28;75786;-68
2021/06/05 03:40:17;;;;;;;;;;;20.30;54.30;;;;;;4991300;28;77574;-67
2021/06/05 03:42:43;;;;;;;;;;;20.30;54.60;;;;;;4992772;28;76686;-68
2021/06/05 03:45:09;;;;;;;;;;;20.30;54.00;;;;;;4993246;28;75325;-70
2021/06/05 03:47:36;;;;;;;;;;;20.30;54.80;;;;;;4991395;28;75327;-70
2021/06/05 03:50:02;;;;;;;;;;;20.20;55.10;;;;;;4993109;28;75274;-70
2021/06/05 03:52:28;;;;;;;;;;;20.20;54.80;;;;;;4992793;28;75094;-69
2021/06/05 03:54:54;;;;;;;;;;;20.20;54.60;;;;;;4993017;28;75632;-70
2021/06/05 03:57:21;;;;;;;;;;;20.20;55.00;;;;;;4992601;28;75157;-67
2021/06/05 03:59:46;;;;;;;;;;;20.20;54.70;;;;;;4992868;28;75497;-69
2021/06/05 04:02:12;;;;;;;;;;;20.20;54.80;;;;;;4992757;28;74825;-68
2021/06/05 04:04:38;;;;;;;;;;;20.20;55.10;;;;;;4990820;28;77882;-69
2021/06/05 04:07:08;;;;;;;;;;;20.20;55.20;;;;;;4992815;28;75728;-68
2021/06/05 04:09:35;;;;;;;;;;;20.10;55.20;;;;;;4991447;28;77129;-66
2021/06/05 04:12:00;;;;;;;;;;;20.00;55.30;;;;;;4991132;28;77473;-66
2021/06/05 04:14:26;;;;;;;;;;;20.00;55.10;;;;;;4992995;28;74491;-66
2021/06/05 04:16:51;;;;;;;;;;;20.00;55.40;;;;;;4993026;28;75726;-66
2021/06/05 04:19:17;;;;;;;;;;;20.00;55.10;;;;;;4992423;28;75058;-66
2021/06/05 04:21:42;;;;;;;;;;;19.90;55.90;;;;;;4991111;28;77521;-66
2021/06/05 04:24:08;;;;;;;;;;;19.90;55.50;;;;;;4991447;28;77409;-67
2021/06/05 04:26:34;;;;;;;;;;;19.90;55.50;;;;;;4991210;28;76952;-67
2021/06/05 04:28:59;;;;;;;;;;;19.90;55.70;;;;;;4991018;28;74703;-69
2021/06/05 04:31:25;;;;;;;;;;;19.90;55.70;;;;;;4992626;28;75539;-68
2021/06/05 04:33:50;;;;;;;;;;;19.90;55.80;;;;;;4992164;28;75599;-68
2021/06/05 04:36:16;;;;;;;;;;;19.90;55.80;;;;;;4990629;28;75639;-67
2021/06/05 04:38:42;;;;;;;;;;;19.90;55.90;;;;;;4992172;28;75694;-67
2021/06/05 04:41:08;;;;;;;;;;;19.90;55.70;;;;;;4991255;28;76493;-68
2021/06/05 04:43:34;;;;;;;;;;;19.90;55.90;;;;;;4990837;28;75515;-68
2021/06/05 04:46:00;;;;;;;;;;;19.90;55.80;;;;;;4992349;28;75067;-68
2021/06/05 04:48:27;;;;;;;;;;;19.90;56.00;;;;;;4992184;28;75425;-67
2021/06/05 04:50:53;;;;;;;;;;;19.90;55.70;;;;;;4992010;28;75174;-67
2021/06/05 04:53:19;;;;;;;;;;;19.90;55.90;;;;;;4992394;28;74981;-68
2021/06/05 04:55:45;;;;;;;;;;;19.90;55.90;;;;;;4990509;28;76580;-68
2021/06/05 04:58:11;;;;;;;;;;;20.00;55.80;;;;;;4992061;28;74960;-67
2021/06/05 05:00:41;;;;;;;;;;;20.00;55.80;;;;;;4991858;28;75257;-69
2021/06/05 05:03:07;;;;;;;;;;;20.10;55.80;;;;;;4992206;28;74358;-69
2021/06/05 05:05:33;;;;;;;;;;;20.10;55.80;;;;;;4992231;28;74382;-69
2021/06/05 05:07:59;;;;;;;;;;;20.20;55.60;;;;;;4991926;28;75206;-69
2021/06/05 05:10:30;;;;;;;;;;;20.20;55.50;;;;;;4990797;28;78216;-69
2021/06/05 05:12:56;;;;;;;;;;;20.20;55.50;;;;;;4990239;28;75980;-68
2021/06/05 05:15:22;;;;;;;;;;;20.20;55.50;;;;;;4992022;28;75137;-68
2021/06/05 05:17:48;;;;;;;;;;;20.30;55.50;;;;;;4993586;28;77209;-69
2021/06/05 05:20:16;;;;;;;;;;;20.30;55.20;;;;;;4994932;28;75442;-69
2021/06/05 05:22:41;;;;;;;;;;;20.30;55.00;;;;;;4995679;28;75780;-69
2021/06/05 05:25:08;;;;;;;;;;;20.40;55.00;;;;;;4995035;28;75314;-69
2021/06/05 05:27:33;;;;;;;;;;;20.30;56.40;;;;;;4993392;28;76407;-68
2021/06/05 05:29:59;;;;;;;;;;;20.30;57.70;;;;;;4993382;28;76388;-67
2021/06/05 05:32:25;;;;;;;;;;;20.20;58.60;;;;;;4993409;28;76293;-67
2021/06/05 05:34:50;;;;;;;;;;;20.10;59.90;;;;;;4994463;28;75594;-68
2021/06/05 05:37:16;;;;;;;;;;;20.10;60.20;;;;;;4993410;28;77093;-68
2021/06/05 05:39:42;;;;;;;;;;;20.00;60.60;;;;;;4994596;28;75130;-68
2021/06/05 05:42:08;;;;;;;;;;;20.00;61.00;;;;;;4994717;28;74475;-68
2021/06/05 05:44:33;;;;;;;;;;;19.90;61.00;;;;;;4994738;28;74975;-68
2021/06/05 05:46:59;;;;;;;;;;;19.90;61.10;;;;;;4992794;28;75331;-68
2021/06/05 05:49:26;;;;;;;;;;;19.90;61.80;;;;;;4993328;28;77444;-68
2021/06/05 05:51:51;;;;;;;;;;;19.90;61.50;;;;;;4993331;28;77741;-68
2021/06/05 05:54:17;;;;;;;;;;;19.90;62.00;;;;;;4994428;28;74900;-69
2021/06/05 05:56:43;;;;;;;;;;;19.90;61.80;;;;;;4992832;28;75573;-68
2021/06/05 05:59:08;;;;;;;;;;;19.90;61.20;;;;;;4992640;28;75719;-68
2021/06/05 06:01:34;;;;;;;;;;;19.90;61.60;;;;;;4993332;28;76209;-68
2021/06/05 06:04:00;;;;;;;;;;;20.00;62.10;;;;;;4994330;28;75188;-69
2021/06/05 06:06:26;;;;;;;;;;;20.00;61.90;;;;;;4994217;28;75228;-68
2021/06/05 06:08:53;;;;;;;;;;;20.00;61.30;;;;;;4992917;28;75465;-68
2021/06/05 06:11:18;;;;;;;;;;;20.00;61.80;;;;;;4992824;28;76875;-69
2021/06/05 06:13:44;;;;;;;;;;;20.00;61.80;;;;;;4993229;28;76823;-68
2021/06/05 06:16:11;;;;;;;;;;;20.00;62.20;;;;;;4994236;28;75424;-69
2021/06/05 06:18:38;;;;;;;;;;;20.00;61.50;;;;;;4993482;28;74630;-68
2021/06/05 06:21:07;;;;;;;;;;;20.00;62.00;;;;;;4992102;28;76760;-68
2021/06/05 06:23:35;;;;;;;;;;;20.10;61.80;;;;;;4994183;28;75214;-64
2021/06/05 06:26:03;;;;;;;;;;;20.10;61.70;;;;;;4994229;28;75208;-66
2021/06/05 06:28:29;;;;;;;;;;;20.20;62.00;;;;;;4992718;28;75131;-65
2021/06/05 06:30:55;;;;;;;;;;;20.20;61.50;;;;;;4992746;28;78251;-65
2021/06/05 06:33:22;;;;;;;;;;;20.20;61.30;;;;;;4992701;28;75804;-68
2021/06/05 06:35:47;;;;;;;;;;;20.30;61.00;;;;;;4992282;28;76383;-65
2021/06/05 06:38:21;;;;;;;;;;;20.30;60.90;;;;;;4992608;28;77642;-62
2021/06/05 06:40:47;;;;;;;;;;;20.40;60.70;;;;;;4994148;28;74784;-68
2021/06/05 06:43:15;;;;;;;;;;;20.40;60.80;;;;;;4994031;28;74493;-68
2021/06/05 06:45:41;;;;;;;;;;;20.40;60.40;;;;;;4993729;28;74960;-68
2021/06/05 06:48:07;;;;;;;;;;;20.50;60.10;;;;;;4992649;28;75498;-66
2021/06/05 06:50:32;;;;;;;;;;;20.50;59.80;;;;;;4992156;28;77318;-67
2021/06/05 06:52:58;;;;;;;;;;;20.50;59.70;;;;;;4993782;28;75167;-67
2021/06/05 06:55:24;;;;;;;;;;;20.50;59.90;;;;;;4991413;28;77062;-66
2021/06/05 06:57:50;;;;;;;;;;;20.50;59.90;;;;;;4992598;28;74670;-65
2021/06/05 07:00:18;;;;;;;;;;;20.50;60.00;;;;;;4993630;28;75199;-69
2021/06/05 07:02:44;;;;;;;;;;;20.50;59.90;;;;;;4991484;28;79273;-64
2021/06/05 07:05:09;;;;;;;;;;;20.50;59.80;;;;;;4990683;28;75791;-69
2021/06/05 07:07:35;;;;;;;;;;;20.50;59.60;;;;;;4992377;28;75025;-69
2021/06/05 07:10:01;;;;;;;;;;;20.50;59.50;;;;;;4992894;28;75613;-69
2021/06/05 07:12:26;;;;;;;;;;;20.40;59.80;;;;;;4992512;28;75666;-70
2021/06/05 07:14:52;;;;;;;;;;;20.40;60.00;;;;;;4992501;28;75295;-68
2021/06/05 07:17:18;;;;;;;;;;;20.40;59.80;;;;;;4989374;28;78133;-68
2021/06/05 07:19:44;;;;;;;;;;;20.40;60.00;;;;;;4988860;28;77222;-67
2021/06/05 07:22:10;;;;;;;;;;;20.50;59.70;;;;;;4990902;28;75090;-69
2021/06/05 07:24:36;;;;;;;;;;;20.50;59.70;;;;;;4990934;28;77596;-68
2021/06/05 07:27:01;;;;;;;;;;;20.60;59.20;;;;;;4990968;28;74744;-70
2021/06/05 07:29:27;;;;;;;;;;;20.60;59.00;;;;;;4992539;28;75226;-67
2021/06/05 07:31:53;;;;;;;;;;;20.70;59.00;;;;;;4993146;28;74599;-66
2021/06/05 07:34:23;;;;;;;;;;;20.70;58.50;;;;;;4993655;28;74433;-66
2021/06/05 07:36:52;;;;;;;;;;;20.70;58.60;;;;;;4992598;28;74490;-67
2021/06/05 07:39:20;;;;;;;;;;;20.70;58.50;;;;;;4992819;28;74670;-67
2021/06/05 07:41:46;;;;;;;;;;;20.80;58.70;;;;;;4991530;28;77822;-66
2021/06/05 07:44:12;;;;;;;;;;;21.00;58.80;;;;;;4991484;28;78627;-67
2021/06/05 07:46:41;;;;;;;;;;;21.20;58.30;;;;;;4992819;28;75276;-67
2021/06/05 07:49:07;;;;;;;;;;;21.40;57.70;;;;;;4992842;28;74561;-66
2021/06/05 07:51:33;;;;;;;;;;;21.50;57.30;;;;;;4992926;28;74581;-66
2021/06/05 07:53:59;;;;;;;;;;;21.60;56.70;;;;;;4992694;28;75330;-66
2021/06/05 07:56:24;;;;;;;;;;;21.70;56.40;;;;;;4991215;28;75232;-67
2021/06/05 07:58:50;;;;;;;;;;;21.80;56.10;;;;;;4990854;28;77186;-67
2021/06/05 08:01:15;;;;;;;;;;;21.90;56.20;;;;;;4992755;28;75241;-67
2021/06/05 08:03:41;;;;;;;;;;;22.10;56.10;;;;;;4991464;28;77612;-67
2021/06/05 08:06:07;;;;;;;;;;;22.20;56.00;;;;;;4992453;28;75002;-67
2021/06/05 08:08:32;;;;;;;;;;;22.40;55.80;;;;;;4986072;28;76901;-67
2021/06/05 08:10:58;;;;;;;;;;;22.50;55.20;;;;;;4979470;28;74692;-67
2021/06/05 08:13:24;;;;;;;;;;;22.70;54.00;;;;;;4992671;28;74878;-68
2021/06/05 08:15:50;;;;;;;;;;;22.80;54.20;;;;;;4992687;28;75627;-68
2021/06/05 08:18:17;;;;;;;;;;;22.90;53.60;;;;;;4992588;28;75758;-67
2021/06/05 08:20:51;;;;;;;;;;;23.10;53.20;;;;;;4990889;28;77453;-67
2021/06/05 08:23:17;;;;;;;;;;;23.20;53.20;;;;;;4983526;28;74664;-68
2021/06/05 08:25:43;;;;;;;;;;;23.40;52.60;;;;;;4982096;28;75728;-68
2021/06/05 08:28:09;;;;;;;;;;;23.30;52.70;;;;;;4982623;28;75245;-68
2021/06/05 08:30:37;;;;;;;;;;;23.50;52.80;;;;;;4972790;28;75683;-68
2021/06/05 08:33:03;;;;;;;;;;;23.60;52.90;;;;;;4971277;28;76625;-68
2021/06/05 08:35:29;;;;;;;;;;;23.80;52.60;;;;;;4972490;28;75054;-67
2021/06/05 08:37:54;;;;;;;;;;;24.00;52.50;;;;;;4972591;28;75562;-68
2021/06/05 08:40:28;;;;;;;;;;;24.10;52.20;;;;;;4972507;28;75001;-68
2021/06/05 08:42:55;;;;;;;;;;;24.10;51.80;;;;;;4972666;28;75323;-68
2021/06/05 08:45:28;;;;;;;;;;;24.10;52.10;;;;;;4970919;28;75294;-68
2021/06/05 08:47:54;;;;;;;;;;;24.10;51.90;;;;;;4971125;28;76373;-68
2021/06/05 08:50:23;;;;;;;;;;;24.20;52.20;;;;;;4972453;28;75157;-68
2021/06/05 08:52:49;;;;;;;;;;;24.40;52.40;;;;;;4975603;28;75807;-68
2021/06/05 08:55:31;;;;;;;;;;;24.50;52.30;;;;;;4974776;28;77638;-68
2021/06/05 08:57:57;;;;;;;;;;;24.60;51.70;;;;;;4973823;28;77829;-68
2021/06/05 09:00:31;;;;;;;;;;;24.70;51.30;;;;;;4976026;28;75598;-68
2021/06/05 09:02:58;;;;;;;;;;;24.80;51.10;;;;;;4976438;28;74434;-68
2021/06/05 09:05:28;;;;;;;;;;;24.70;51.40;;;;;;4973953;28;95178;-69
2021/06/05 09:07:54;;;;;;;;;;;24.70;51.50;;;;;;4976350;28;74550;-68
2021/06/05 09:10:20;;;;;;;;;;;24.70;51.10;;;;;;4976261;28;74456;-69
2021/06/05 09:12:46;;;;;;;;;;;24.70;51.30;;;;;;4976207;28;74424;-69
2021/06/05 09:15:19;;;;;;;;;;;24.80;51.60;;;;;;4975735;28;74556;-69
2021/06/05 09:17:46;;;;;;;;;;;24.90;51.40;;;;;;4982196;28;75325;-68
2021/06/05 09:20:14;;;;;;;;;;;25.10;50.70;;;;;;4983018;28;78127;-69
2021/06/05 09:22:44;;;;;;;;;;;25.10;50.30;;;;;;4981784;28;75430;-69
2021/06/05 09:25:18;;;;;;;;;;;25.10;50.60;;;;;;4981467;28;75507;-68
2021/06/05 09:27:44;;;;;;;;;;;25.00;50.90;;;;;;4976181;28;75582;-69
2021/06/05 09:30:34;;;;;;;;;;;24.90;50.80;;;;;;4974335;28;76061;-67
2021/06/05 09:33:02;;;;;;;;;;;25.00;51.10;;;;;;4974043;28;76859;-71
2021/06/05 09:35:33;;;;;;;;;;;25.10;51.30;;;;;;4975331;28;75205;-70
2021/06/05 09:38:31;;;;;;;;;;;25.20;50.90;;;;;;4973791;28;77339;-69
2021/06/05 09:41:08;;;;;;;;;;;25.20;51.00;;;;;;4972828;28;74742;-69
2021/06/05 09:43:35;;;;;;;;;;;25.20;51.00;;;;;;4975307;28;74516;-68
2021/06/05 09:46:19;;;;;;;;;;;25.30;50.80;;;;;;4973283;28;77956;-69
2021/06/05 09:48:46;;;;;;;;;;;25.30;50.70;;;;;;4973588;28;78279;-68
2021/06/05 09:51:24;;;;;;;;;;;25.30;50.90;;;;;;4973893;28;74721;-68
2021/06/05 09:54:00;;;;;;;;;;;25.30;51.10;;;;;;4975317;28;75861;-67
2021/06/05 09:56:27;;;;;;;;;;;25.40;50.80;;;;;;4973766;28;76887;-68
2021/06/05 09:59:04;;;;;;;;;;;25.30;50.90;;;;;;4973827;28;78082;-68
2021/06/05 10:01:31;;;;;;;;;;;25.30;51.20;;;;;;4975072;28;75253;-67
2021/06/05 10:04:09;;;;;;;;;;;25.30;51.10;;;;;;4974914;28;75073;-68
2021/06/05 10:06:42;;;;;;;;;;;25.20;51.00;;;;;;4974781;28;74485;-67
2021/06/05 10:09:17;;;;;;;;;;;25.20;51.30;;;;;;4974862;28;75302;-68
2021/06/05 10:11:42;;;;;;;;;;;25.00;51.80;;;;;;4974966;28;75288;-72
2021/06/05 10:14:11;;;;;;;;;;;25.00;51.80;;;;;;4973843;28;75510;-67
2021/06/05 10:16:38;;;;;;;;;;;24.90;51.50;;;;;;4974680;28;74618;-67
2021/06/05 10:19:08;;;;;;;;;;;24.80;51.90;;;;;;4974639;28;75283;-68
2021/06/05 10:21:45;;;;;;;;;;;24.70;52.30;;;;;;4973497;28;77696;-69
2021/06/05 10:24:29;;;;;;;;;;;24.60;52.60;;;;;;4974695;28;75174;-68
2021/06/05 10:27:00;;;;;;;;;;;24.60;52.90;;;;;;4974801;28;75155;-68
2021/06/05 10:29:25;;;;;;;;;;;24.70;52.70;;;;;;4974266;28;75257;-69
2021/06/05 10:31:51;;;;;;;;;;;24.80;52.20;;;;;;4973372;28;75415;-69
2021/06/05 10:34:34;;;;;;;;;;;24.90;51.90;;;;;;4974663;28;75324;-69
2021/06/05 10:37:00;;;;;;;;;;;24.90;52.10;;;;;;4974289;28;75251;-69
2021/06/05 10:39:31;;;;;;;;;;;24.90;51.80;;;;;;4973876;28;75264;-70
2021/06/05 10:41:59;;;;;;;;;;;24.90;51.80;;;;;;4974457;28;74971;-70
2021/06/05 10:44:25;;;;;;;;;;;24.90;51.80;;;;;;4974435;28;75114;-70
2021/06/05 10:47:03;;;;;;;;;;;24.90;51.90;;;;;;4975225;28;75238;-70
2021/06/05 10:49:37;;;;;;;;;;;24.90;52.00;;;;;;4974100;28;77247;-69
2021/06/05 10:52:30;;;;;;;;;;;25.00;51.90;;;;;;4987364;28;74676;-69
2021/06/05 10:54:58;;;;;;;;;;;25.20;51.50;;;;;;4970273;28;77371;-70
2021/06/05 10:57:24;;;;;;;;;;;25.30;51.30;;;;;;4969409;28;76856;-69
2021/06/05 10:59:57;;;;;;;;;;;25.40;51.10;;;;;;4970617;28;77612;-69
2021/06/05 11:02:34;;;;;;;;;;;25.50;50.80;;;;;;4971227;28;76081;-69
2021/06/05 11:05:00;;;;;;;;;;;25.70;50.70;;;;;;4972920;28;74983;-69
2021/06/05 11:07:33;;;;;;;;;;;25.90;50.10;;;;;;4973656;28;75671;-70
2021/06/05 11:10:00;;;;;;;;;;;26.00;49.40;;;;;;4973658;28;75244;-70
2021/06/05 11:12:25;;;;;;;;;;;26.20;49.40;;;;;;4973973;28;75748;-70
2021/06/05 11:14:52;;;;;;;;;;;26.60;48.90;;;;;;4973055;28;75708;-71
2021/06/05 11:17:21;;;;;;;;;;;27.00;48.10;;;;;;4973913;28;75049;-70
2021/06/05 11:19:49;;;;;;;;;;;27.40;47.00;;;;;;4973814;28;75489;-70
2021/06/05 11:22:16;;;;;;;;;;;27.50;46.30;;;;;;4972364;28;77170;-71
2021/06/05 11:24:43;;;;;;;;;;;27.70;46.30;;;;;;4972677;28;75841;-70
2021/06/05 11:27:29;;;;;;;;;;;27.90;45.50;;;;;;4972014;28;75417;-70
2021/06/05 11:29:57;;;;;;;;;;;27.80;45.30;;;;;;4973378;28;74744;-71
2021/06/05 11:32:32;;;;;;;;;;;27.50;44.50;;;;;;4973608;28;75216;-72
2021/06/05 11:35:00;;;;;;;;;;;27.40;43.80;;;;;;4971800;28;75152;-71
2021/06/05 11:37:35;;;;;;;;;;;27.70;43.30;;;;;;4973461;28;75524;-71
2021/06/05 11:40:08;;;;;;;;;;;27.60;41.80;;;;;;4973713;28;74457;-70
2021/06/05 11:42:36;;;;;;;;;;;27.60;42.80;;;;;;4974022;28;77154;-69
2021/06/05 11:45:02;;;;;;;;;;;27.60;42.80;;;;;;4973280;28;75232;-70
2021/06/05 11:47:31;;;;;;;;;;;27.50;41.20;;;;;;4971910;28;75480;-70
2021/06/05 11:49:56;;;;;;;;;;;27.30;39.60;;;;;;4973156;28;75064;-72
2021/06/05 11:52:28;;;;;;;;;;;26.90;41.80;;;;;;4973167;28;74989;-69
2021/06/05 11:54:54;;;;;;;;;;;26.60;41.50;;;;;;4971548;28;74590;-69
2021/06/05 11:57:27;;;;;;;;;;;26.40;42.20;;;;;;4973217;28;74511;-69
2021/06/05 11:59:57;;;;;;;;;;;26.20;42.60;;;;;;4972895;28;75579;-69
2021/06/05 12:02:22;;;;;;;;;;;25.90;43.10;;;;;;4971717;28;76492;-69
2021/06/05 12:04:50;;;;;;;;;;;25.70;44.00;;;;;;4971797;28;76259;-69
2021/06/05 12:07:20;;;;;;;;;;;25.70;43.20;;;;;;4971314;28;75222;-69
2021/06/05 12:09:46;;;;;;;;;;;25.40;43.80;;;;;;4973418;28;74545;-69
2021/06/05 12:12:12;;;;;;;;;;;25.20;44.40;;;;;;4973133;28;75110;-70
2021/06/05 12:17:32;;;;;;;;;;;25.10;45.10;;;;;;4969767;28;75027;-68
2021/06/05 12:20:07;;;;;;;;;;;25.00;45.20;;;;;;4971092;28;78038;-68
2021/06/05 12:22:33;;;;;;;;;;;24.90;45.40;;;;;;4971764;28;75380;-70
2021/06/05 12:24:59;;;;;;;;;;;24.90;45.90;;;;;;4972927;28;74794;-68
2021/06/05 12:27:27;;;;;;;;;;;24.80;45.90;;;;;;4976369;28;75222;-67
2021/06/05 12:30:03;;;;;;;;;;;24.70;45.50;;;;;;4974775;28;77333;-68
2021/06/05 12:32:29;;;;;;;;;;;24.60;45.80;;;;;;4975402;28;75510;-68
2021/06/05 12:34:55;;;;;;;;;;;24.70;46.70;;;;;;4976027;28;75026;-68
2021/06/05 12:37:20;;;;;;;;;;;24.70;47.70;;;;;;4974822;28;77863;-68
2021/06/05 12:39:48;;;;;;;;;;;24.70;47.60;;;;;;4974692;28;75422;-67
2021/06/05 12:42:19;;;;;;;;;;;24.60;48.70;;;;;;4974601;28;77791;-68
2021/06/05 12:44:46;;;;;;;;;;;24.60;49.80;;;;;;4976428;28;75218;-70
2021/06/05 12:47:14;;;;;;;;;;;24.40;48.90;;;;;;4975996;28;75096;-69
2021/06/05 12:49:43;;;;;;;;;;;24.40;50.00;;;;;;4974858;28;77292;-69
2021/06/05 12:52:12;;;;;;;;;;;24.30;50.40;;;;;;4976138;28;74626;-70
2021/06/05 12:54:39;;;;;;;;;;;24.20;50.80;;;;;;4974769;28;75867;-71
2021/06/05 12:57:41;;;;;;;;;;;24.10;51.80;;;;;;4974518;28;78179;-67
2021/06/05 13:00:15;;;;;;;;;;;24.10;51.90;;;;;;4973579;28;75218;-68
2021/06/05 13:02:41;;;;;;;;;;;24.00;50.50;;;;;;4975415;28;75532;-68
2021/06/05 13:05:09;;;;;;;;;;;24.00;50.20;;;;;;4973791;28;75455;-67
2021/06/05 13:07:38;;;;;;;;;;;24.00;49.10;;;;;;4974891;28;77204;-68
2021/06/05 13:10:18;;;;;;;;;;;24.00;49.40;;;;;;4975797;28;74987;-69
2021/06/05 13:12:44;;;;;;;;;;;24.00;49.00;;;;;;4974416;28;77193;-70
2021/06/05 13:15:11;;;;;;;;;;;24.30;49.40;;;;;;4973997;28;78345;-69
2021/06/05 13:17:38;;;;;;;;;;;24.40;49.00;;;;;;4976012;28;74469;-70
2021/06/05 13:20:06;;;;;;;;;;;24.40;48.80;;;;;;4974098;28;77562;-70
2021/06/05 13:22:31;;;;;;;;;;;24.30;48.80;;;;;;4975468;28;75418;-68
2021/06/05 13:25:06;;;;;;;;;;;24.20;49.50;;;;;;4975615;28;75194;-69
2021/06/05 13:27:32;;;;;;;;;;;24.20;49.30;;;;;;4974003;28;77301;-70
2021/06/05 13:30:15;;;;;;;;;;;24.20;48.70;;;;;;4974010;28;75928;-70
2021/06/05 13:32:42;;;;;;;;;;;24.30;49.10;;;;;;4975395;28;75061;-70
2021/06/05 13:35:12;;;;;;;;;;;24.30;48.50;;;;;;4975409;28;75372;-69
2021/06/05 13:37:51;;;;;;;;;;;24.40;48.60;;;;;;4973272;28;77637;-69
2021/06/05 13:40:17;;;;;;;;;;;24.40;48.50;;;;;;4975405;28;75861;-69
2021/06/05 13:42:43;;;;;;;;;;;24.40;46.90;;;;;;4975585;28;75126;-70
2021/06/05 13:45:12;;;;;;;;;;;24.20;46.50;;;;;;4975216;28;75223;-70
2021/06/05 13:47:38;;;;;;;;;;;24.00;47.50;;;;;;4975410;28;75416;-70
2021/06/05 13:50:05;;;;;;;;;;;24.00;47.20;;;;;;4973398;28;77573;-70
2021/06/05 13:52:32;;;;;;;;;;;23.90;47.20;;;;;;4975576;28;75240;-69
2021/06/05 13:55:04;;;;;;;;;;;23.80;48.00;;;;;;4975078;28;75129;-68
2021/06/05 13:57:29;;;;;;;;;;;23.90;48.40;;;;;;4975310;28;75224;-69
2021/06/05 13:59:55;;;;;;;;;;;23.90;47.90;;;;;;4975123;28;75207;-68
2021/06/05 14:02:21;;;;;;;;;;;23.70;48.50;;;;;;4975129;28;75038;-68
2021/06/05 14:04:50;;;;;;;;;;;23.80;48.70;;;;;;4973871;28;76228;-70
2021/06/05 14:07:16;;;;;;;;;;;23.90;48.30;;;;;;4973056;28;76483;-68
2021/06/05 14:09:45;;;;;;;;;;;24.00;47.80;;;;;;4975064;28;75304;-69
2021/06/05 14:12:12;;;;;;;;;;;24.00;47.80;;;;;;4973346;28;76338;-69
2021/06/05 14:14:38;;;;;;;;;;;24.10;48.10;;;;;;4975015;28;74492;-68
2021/06/05 14:17:03;;;;;;;;;;;24.20;47.80;;;;;;4974949;28;74448;-70
2021/06/05 14:19:29;;;;;;;;;;;24.20;47.80;;;;;;4973070;28;75560;-69
2021/06/05 14:21:54;;;;;;;;;;;24.30;47.70;;;;;;4973063;28;75336;-70
2021/06/05 14:24:20;;;;;;;;;;;24.30;47.80;;;;;;4974671;28;75189;-69